Latest Coastal Weather Observations for Mandora

IDW60701

Issued at 9:02 pm WST Saturday 13 February 2016 (issued every 10 minutes, with the page automatically refreshed every 10 minutes)

About coastal observations | Map of coastal stations | Coastal observations for WA | Marine services | Other Formats
Station Details ID: 004019 Name: MANDORA Lat: -19.74 Lon: 120.84 Height: 7.5 m
Data from the previous 72 hours. | See also: Recent months at Mandora
Date/Time
WST
Temp

°C
Wind Pressure Rain
since 9am
mm
Weather Cloud Vis
km
Sea
Height
m
Swell
Dir
 
Speed
knots
Gust
knots
hPa Trend Height
m
Period
s
Dir
13/09:00pm 27.4 NNW 6 7 1008.4 - 0.0 - - - - - - -
13/08:30pm 27.4 NW 5 6 1008.4 - 0.0 - - - - - - -
13/08:00pm 27.8 WNW 4 5 1008.4 - 0.0 - - - - - - -
13/07:30pm 28.3 NW 5 6 1008.3 - 0.0 - - - - - - -
13/07:00pm 29.4 WNW 6 9 1007.8 - 0.0 - - - - - - -
13/06:30pm 30.0 W 9 13 1007.4 - 0.0 - - - - - - -
13/06:00pm 31.0 WNW 10 14 1006.8 - 0.0 - - - - - - -
13/05:30pm 31.8 W 11 15 1006.7 - 0.0 - - - - - - -
13/05:00pm 32.5 WNW 10 15 1006.6 - 0.0 - - - - - - -
13/04:30pm 32.4 WNW 11 15 1006.7 - 0.0 - - - - - - -
13/04:00pm 32.9 WNW 12 18 1006.8 - 0.0 - - - - - - -
13/03:30pm 33.6 WNW 11 16 1007.0 - 0.0 - - - - - - -
13/03:00pm 33.0 WNW 12 18 1007.3 - 0.0 - - - - - - -
13/02:30pm 32.9 NW 12 18 1007.5 - 0.0 - - - - - - -
13/02:00pm 33.3 NW 12 19 1007.7 - 0.0 - - - - - - -
13/01:30pm 33.4 NW 12 17 1007.9 - 0.0 - - - - - - -
13/01:00pm 33.7 NW 12 18 1008.1 - 0.0 - - - - - - -
13/12:30pm 33.5 NW 10 16 1008.3 - 0.0 - - - - - - -
13/12:00pm 33.7 NW 10 15 1008.7 - 0.0 - - - - - - -
13/11:30am 33.5 NW 10 16 1008.8 - 0.0 - - - - - - -
13/11:00am 33.5 NW 11 16 1009.2 - 0.0 - - - - - - -
13/10:30am 32.8 NW 10 15 1009.4 - 0.0 - - - - - - -
13/10:00am 32.7 NNW 10 14 1009.5 - 0.0 - - - - - - -
13/09:30am 32.5 NW 9 13 1009.4 - 0.0 - - - - - - -
13/09:00am 32.1 NW 10 14 1009.6 - 0.0 - - - - - - -
13/08:30am 32.2 NW 8 11 1009.8 - 0.0 - - - - - - -
13/08:00am 31.3 WNW 9 15 1009.7 - 0.0 - - - - - - -
13/07:30am 30.2 WNW 9 12 1009.7 - 0.0 - - - - - - -
13/07:00am 29.4 WNW 7 11 1009.2 - 0.0 - - - - - - -
13/06:30am 28.1 WNW 6 8 1009.1 - 0.0 - - - - - - -
13/06:00am 27.6 NW 6 9 1008.7 - 0.0 - - - - - - -
13/05:30am 27.7 NW 6 10 1008.4 - 0.0 - - - - - - -
13/05:00am 27.7 NW 7 10 1008.0 - 0.0 - - - - - - -
13/04:30am 27.9 NNW 8 11 1007.8 - 0.0 - - - - - - -
13/04:00am 27.9 NNW 7 11 1007.8 - 0.0 - - - - - - -
13/03:30am 28.1 NW 7 9 1007.9 - 0.0 - - - - - - -
13/03:00am 27.9 NW 6 8 1007.9 - 0.0 - - - - - - -
13/02:30am 28.0 NW 6 9 1007.9 - 0.0 - - - - - - -
13/02:00am 28.2 NW 6 8 1007.8 - 0.0 - - - - - - -
13/01:30am 28.7 NNW 9 13 1007.6 - 0.0 - - - - - - -
13/01:00am 28.9 NNW 9 14 1007.6 - 0.0 - - - - - - -
13/12:30am 29.3 NNW 9 13 1008.1 - 0.0 - - - - - - -
13/12:00am 29.5 N 9 14 1007.9 - 0.0 - - - - - - -
 
Date/Time
WST
Temp

°C
Wind Pressure Rain
since 9am
mm
Weather Cloud Vis
km
Sea
Height
m
Swell
Dir
 
Speed
knots
Gust
knots
hPa Trend Height
m
Period
s
Dir
12/11:30pm 29.5 N 9 14 1007.8 - 0.0 - - - - - - -
12/11:00pm 29.7 N 8 13 1007.9 - 0.0 - - - - - - -
12/10:30pm 28.8 NW 6 10 1007.5 - 0.0 - - - - - - -
12/10:00pm 27.4 NE 7 11 1007.6 - 0.0 - - - - - - -
12/09:30pm 28.4 WNW 4 5 1007.4 - 0.0 - - - - - - -
12/09:00pm 28.7 W 5 7 1007.0 - 0.0 - - - - - - -
12/08:30pm 29.0 W 6 7 1006.5 - 0.0 - - - - - - -
12/08:00pm 29.4 W 6 8 1006.2 - 0.0 - - - - - - -
12/07:30pm 30.1 W 7 8 1005.8 - 0.0 - - - - - - -
12/07:00pm 31.0 W 8 11 1005.4 - 0.0 - - - - - - -
12/06:30pm 32.1 WNW 6 9 1005.1 - 0.0 - - - - - - -
12/06:00pm 33.7 WNW 8 11 1004.4 - 0.0 - - - - - - -
12/05:30pm 34.8 WNW 8 11 1004.1 - 0.0 - - - - - - -
12/05:00pm 35.7 WNW 8 12 1004.1 - 0.0 - - - - - - -
12/04:30pm 36.6 WNW 9 13 1003.8 - 0.0 - - - - - - -
12/04:00pm 36.8 WNW 10 13 1003.8 - 0.0 - - - - - - -
12/03:30pm 36.5 NW 9 15 1004.1 - 0.0 - - - - - - -
12/03:00pm 36.5 NW 10 14 1004.4 - 0.0 - - - - - - -
12/02:30pm 36.9 NW 10 14 1004.6 - 0.0 - - - - - - -
12/02:00pm 38.0 NW 10 14 1004.9 - 0.0 - - - - - - -
12/01:30pm 38.5 NW 9 13 1005.2 - 0.0 - - - - - - -
12/01:00pm 38.1 NNW 9 15 1005.6 - 0.0 - - - - - - -
12/12:30pm 37.1 NNW 8 11 1006.1 - 0.0 - - - - - - -
12/12:00pm 38.2 NNW 8 12 1006.5 - 0.0 - - - - - - -
12/11:30am 38.9 NNW 7 11 1006.6 - 0.0 - - - - - - -
12/11:00am 41.2 N 5 8 1006.8 - 0.0 - - - - - - -
12/10:30am 40.7 NNE 3 6 1007.1 - 0.0 - - - - - - -
12/10:00am 40.4 ESE 4 7 1007.4 - 0.0 - - - - - - -
12/09:30am 37.8 ENE 3 6 1007.6 - 0.0 - - - - - - -
12/09:00am 36.4 E 4 6 1007.8 - 0.0 - - - - - - -
12/08:30am 34.5 ENE 3 6 1008.0 - 0.0 - - - - - - -
12/08:00am 33.4 ESE 1 5 1008.2 - 0.0 - - - - - - -
12/07:30am 31.3 SE 4 8 1008.0 - 0.0 - - - - - - -
12/07:00am 27.9 S 4 6 1007.9 - 0.0 - - - - - - -
12/06:30am 26.0 SSW 5 8 1007.9 - 0.0 - - - - - - -
12/06:00am 24.1 SW 5 7 1007.1 - 0.0 - - - - - - -
12/05:30am 23.9 SSW 4 7 1006.9 - 0.0 - - - - - - -
12/05:00am 23.0 WSW 4 6 1006.7 - 0.0 - - - - - - -
12/04:30am 24.0 NNW 5 8 1006.5 - 0.0 - - - - - - -
12/04:00am 24.4 NE 6 13 1006.7 - 0.0 - - - - - - -
12/03:30am 24.4 ESE 3 5 1006.2 - 0.0 - - - - - - -
12/03:00am 24.8 ESE 2 4 1006.0 - 0.0 - - - - - - -
12/02:30am 27.8 SSW 7 8 1006.0 - 0.0 - - - - - - -
12/02:00am 28.2 SSW 6 8 1006.1 - 0.0 - - - - - - -
12/01:30am 27.8 SSW 7 8 1006.2 - 0.0 - - - - - - -
12/01:00am 27.9 SSW 5 6 1006.4 - 0.0 - - - - - - -
12/12:30am 28.3 SSW 7 8 1006.6 - 0.0 - - - - - - -
12/12:00am 27.0 SSW 6 7 1006.8 - 0.0 - - - - - - -
 
Date/Time
WST
Temp

°C
Wind Pressure Rain
since 9am
mm
Weather Cloud Vis
km
Sea
Height
m
Swell
Dir
 
Speed
knots
Gust
knots
hPa Trend Height
m
Period
s
Dir
11/11:30pm 27.1 SSW 6 7 1006.9 - 0.0 - - - - - - -
11/11:00pm 27.4 SW 6 7 1007.0 - 0.0 - - - - - - -
11/10:30pm 28.1 SW 6 6 1007.2 - 0.0 - - - - - - -
11/10:00pm 26.6 SSW 4 5 1007.1 - 0.0 - - - - - - -
11/09:30pm 29.4 SW 5 7 1006.9 - 0.0 - - - - - - -
11/09:00pm 30.0 SW 6 7 1006.6 - 0.0 - - - - - - -
11/08:30pm 30.4 SW 7 9 1006.3 - 0.0 - - - - - - -
11/08:00pm 31.3 WSW 6 7 1006.1 - 0.0 - - - - - - -
11/07:30pm 32.3 WSW 6 7 1005.8 - 0.0 - - - - - - -
11/07:00pm 32.9 WSW 5 7 1005.2 - 0.0 - - - - - - -
11/06:30pm 34.9 W 5 7 1004.7 - 0.0 - - - - - - -
11/06:00pm 37.3 WNW 6 10 1004.4 - 0.0 - - - - - - -
11/05:30pm 39.2 NW 9 12 1004.1 - 0.0 - - - - - - -
11/05:00pm 40.0 WNW 7 12 1003.9 - 0.0 - - - - - - -
11/04:30pm 40.4 NW 11 15 1003.8 - 0.0 - - - - - - -
11/04:00pm 40.9 WNW 10 15 1003.7 - 0.0 - - - - - - -
11/03:30pm 41.4 NNW 11 15 1003.8 - 0.0 - - - - - - -
11/03:00pm 42.7 NW 10 14 1004.1 - 0.0 - - - - - - -
11/02:30pm 42.1 NNW 11 15 1004.1 - 0.0 - - - - - - -
11/02:00pm 42.4 NW 11 16 1004.6 - 0.0 - - - - - - -
11/01:30pm 42.1 NNW 12 19 1004.8 - 0.0 - - - - - - -
11/01:00pm 43.0 NNW 10 16 1005.1 - 0.0 - - - - - - -
11/12:30pm 43.8 NNW 6 12 1005.5 - 0.0 - - - - - - -
11/12:00pm 43.2 NE 8 11 1005.8 - 0.0 - - - - - - -
11/11:30am 44.5 ENE 8 12 1006.2 - 0.0 - - - - - - -
11/11:00am 42.9 ENE 5 9 1006.6 - 0.0 - - - - - - -
11/10:30am 42.4 E 5 7 1006.8 - 0.0 - - - - - - -
11/10:00am 41.7 S 4 6 1007.1 - 0.0 - - - - - - -
11/09:30am 40.9 E 4 6 1007.3 - 0.0 - - - - - - -
11/09:00am 39.4 E 3 6 1007.5 - 0.0 - - - - - - -
11/08:30am 37.4 ESE 6 9 1007.7 - 0.0 - - - - - - -
11/08:00am 34.9 SE 6 10 1007.7 - 0.0 - - - - - - -
11/07:30am 31.8 SSE 5 8 1007.7 - 0.0 - - - - - - -
11/07:00am 28.9 SSE 5 8 1007.6 - 0.0 - - - - - - -
11/06:30am 26.3 S 5 7 1007.3 - 0.0 - - - - - - -
11/06:00am 24.6 SSE 5 7 1007.0 - 0.0 - - - - - - -
11/05:30am 24.0 S 4 6 1006.8 - 0.0 - - - - - - -
11/05:00am 26.0 SSE 6 8 1006.7 - 0.0 - - - - - - -
11/04:30am 26.3 SSE 5 10 1006.4 - 0.0 - - - - - - -
11/04:00am 26.1 S 5 7 1006.0 - 0.0 - - - - - - -
11/03:30am 26.3 SSW 5 6 1006.0 - 0.0 - - - - - - -
11/03:00am 27.3 SSW 5 5 1005.9 - 0.0 - - - - - - -
11/02:30am 27.5 SW 6 7 1005.9 - 0.0 - - - - - - -
11/02:00am 26.7 SW 6 7 1005.9 - 0.0 - - - - - - -
11/01:30am 27.8 SSW 6 8 1005.9 - 0.0 - - - - - - -
11/01:00am 28.5 SSW 7 9 1006.0 - 0.0 - - - - - - -
11/12:30am 28.1 SW 7 8 1006.2 - 0.0 - - - - - - -
11/12:00am 29.0 SW 7 8 1006.5 - 0.0 - - - - - - -
 
Date/Time
WST
Temp

°C
Wind Pressure Rain
since 9am
mm
Weather Cloud Vis
km
Sea
Height
m
Swell
Dir
 
Speed
knots
Gust
knots
hPa Trend Height
m
Period
s
Dir
10/11:30pm 28.6 SW 6 8 1006.6 - 0.0 - - - - - - -
10/11:00pm 28.9 SW 7 8 1007.0 - 0.0 - - - - - - -
10/10:30pm 28.9 WSW 8 10 1007.3 - 0.0 - - - - - - -
10/10:00pm 28.7 SW 5 6 1007.4 - 0.0 - - - - - - -
10/09:30pm 28.7 SW 5 7 1007.3 - 0.0 - - - - - - -

Other Formats:

Comma delimited format used in spreadsheet applications
http://www.bom.gov.au/fwo/IDW60701/IDW60701.94200.axf

JavaScript Object Notation format (JSON) in row-major order
http://www.bom.gov.au/fwo/IDW60701/IDW60701.94200.json